createdAt,value
2023-01-02T00:01:08.994Z,100932.37
2023-01-02T00:03:36.760Z,100930.88
2023-01-02T00:06:05.199Z,100932.78
2023-01-02T00:08:33.146Z,100942.81
2023-01-02T00:11:00.845Z,100932.19
2023-01-02T00:13:28.684Z,100941.53
2023-01-02T00:15:56.154Z,100933.53
2023-01-02T00:18:23.872Z,100934.88
2023-01-02T00:20:51.314Z,100929.16
2023-01-02T00:23:18.747Z,100925.78
2023-01-02T00:25:48.592Z,100936.50
2023-01-02T00:28:15.994Z,100924.09
2023-01-02T00:30:43.388Z,100925.16
2023-01-02T00:33:11.085Z,100925.22
2023-01-02T00:35:38.923Z,100930.41
2023-01-02T00:38:06.430Z,100930.69
2023-01-02T00:40:34.730Z,100934.16
2023-01-02T00:43:02.423Z,100934.69
2023-01-02T00:45:29.863Z,100930.50
2023-01-02T00:47:57.613Z,100932.69
2023-01-02T00:50:25.015Z,100932.97
2023-01-02T00:52:52.443Z,100937.50
2023-01-02T00:55:20.346Z,100943.88
2023-01-02T00:57:47.739Z,100938.19
2023-01-02T01:00:21.615Z,100943.69
2023-01-02T01:02:58.636Z,100947.09
2023-01-02T01:05:26.629Z,100939.06
2023-01-02T01:07:55.581Z,100935.94
2023-01-02T01:10:24.081Z,100928.16
2023-01-02T01:12:51.681Z,100938.81
2023-01-02T01:15:19.386Z,100931.94
2023-01-02T01:17:46.865Z,100931.63
2023-01-02T01:20:14.330Z,100932.50
2023-01-02T01:22:42.051Z,100945.31
2023-01-02T01:25:09.792Z,100940.12
2023-01-02T01:27:37.204Z,100947.12
2023-01-02T01:30:06.332Z,100930.81
2023-01-02T01:32:34.955Z,100938.16
2023-01-02T01:35:02.554Z,100926.28
2023-01-02T01:37:30.375Z,100929.66
2023-01-02T01:39:57.734Z,100916.97
2023-01-02T01:42:25.101Z,100910.69
2023-01-02T01:44:54.607Z,100911.34
2023-01-02T01:47:53.380Z,100891.34
2023-01-02T01:50:30.011Z,100889.50
2023-01-02T01:53:18.199Z,100895.63
2023-01-02T01:55:51.013Z,100895.41
2023-01-02T01:58:25.159Z,100887.81
2023-01-02T02:00:53.214Z,100875.69
2023-01-02T02:03:24.410Z,100874.50
2023-01-02T02:05:52.211Z,100877.31
2023-01-02T02:08:23.709Z,100887.09
2023-01-02T02:10:52.066Z,100878.81
2023-01-02T02:13:21.610Z,100879.59
2023-01-02T02:16:49.241Z,100871.72
2023-01-02T02:19:44.368Z,100868.59
2023-01-02T02:22:14.377Z,100872.13
2023-01-02T02:24:56.791Z,100862.22
2023-01-02T02:27:51.949Z,100859.31
2023-01-02T02:30:25.968Z,100854.91
2023-01-02T02:33:18.478Z,100842.94
2023-01-02T02:35:55.009Z,100851.31
2023-01-02T02:38:28.093Z,100853.31
2023-01-02T02:41:04.778Z,100861.06
2023-01-02T02:43:50.907Z,100861.75
2023-01-02T02:46:52.011Z,100859.00
2023-01-02T02:49:37.788Z,100857.37
2023-01-02T02:52:08.597Z,100861.41
2023-01-02T02:54:49.288Z,100856.06
2023-01-02T02:57:17.972Z,100863.41
2023-01-02T02:59:46.110Z,100858.16
2023-01-02T03:02:16.338Z,100855.28
2023-01-02T03:04:48.054Z,100846.38
2023-01-02T03:07:21.400Z,100840.66
2023-01-02T03:10:16.191Z,100842.19
2023-01-02T03:12:55.529Z,100841.13
2023-01-02T03:15:36.151Z,100835.44
2023-01-02T03:18:30.650Z,100837.69
2023-01-02T03:21:04.576Z,100834.97
2023-01-02T03:23:37.053Z,100845.56
2023-01-02T03:26:05.287Z,100843.81
2023-01-02T03:28:32.909Z,100843.63
2023-01-02T03:31:01.930Z,100842.31
2023-01-02T03:33:32.780Z,100825.53
2023-01-02T03:36:04.073Z,100820.78
2023-01-02T03:38:44.798Z,100839.41
2023-01-02T03:41:19.086Z,100835.75
2023-01-02T03:43:54.751Z,100845.31
2023-01-02T03:46:31.573Z,100843.16
2023-01-02T03:49:07.295Z,100844.56
2023-01-02T03:51:35.903Z,100844.50
2023-01-02T03:54:04.648Z,100843.72
2023-01-02T03:56:42.177Z,100844.31
2023-01-02T03:59:16.649Z,100847.88
2023-01-02T04:01:52.335Z,100836.63
2023-01-02T04:04:23.068Z,100847.44
2023-01-02T04:06:56.091Z,100845.62
2023-01-02T04:09:27.076Z,100845.00
2023-01-02T04:11:59.396Z,100840.41
2023-01-02T04:14:40.754Z,100839.88
2023-01-02T04:17:08.716Z,100837.56
2023-01-02T04:19:43.297Z,100843.03
2023-01-02T04:22:14.626Z,100839.16
2023-01-02T04:24:46.877Z,100841.38
2023-01-02T04:27:19.318Z,100839.22
2023-01-02T04:29:47.012Z,100852.12
2023-01-02T04:32:21.339Z,100846.81
2023-01-02T04:34:49.875Z,100857.53
2023-01-02T04:37:33.906Z,100859.34
2023-01-02T04:40:11.338Z,100862.94
2023-01-02T04:42:39.055Z,100863.28
2023-01-02T04:45:07.649Z,100865.53
2023-01-02T04:47:35.281Z,100855.03
2023-01-02T04:50:05.138Z,100855.84
2023-01-02T04:52:36.968Z,100859.78
2023-01-02T04:55:08.410Z,100853.91
2023-01-02T04:57:37.292Z,100852.78
2023-01-02T05:00:06.625Z,100857.84
2023-01-02T05:02:38.054Z,100862.28
2023-01-02T05:05:09.465Z,100864.34
2023-01-02T05:07:37.599Z,100858.16
2023-01-02T05:10:06.378Z,100849.34
2023-01-02T05:12:35.497Z,100847.13
2023-01-02T05:15:04.450Z,100857.72
2023-01-02T05:17:40.107Z,100859.34
2023-01-02T05:20:10.471Z,100859.59
2023-01-02T05:22:58.745Z,100863.47
2023-01-02T05:25:27.371Z,100850.72
2023-01-02T05:27:55.450Z,100855.94
2023-01-02T05:30:23.372Z,100851.25
2023-01-02T05:32:51.192Z,100848.13
2023-01-02T05:35:18.705Z,100857.19
2023-01-02T05:37:46.221Z,100857.03
2023-01-02T05:40:13.932Z,100841.91
2023-01-02T05:42:41.496Z,100850.34
2023-01-02T05:45:09.246Z,100852.22
2023-01-02T05:47:38.670Z,100850.50
2023-01-02T05:50:07.847Z,100847.66
2023-01-02T05:52:37.642Z,100843.97
2023-01-02T05:55:09.575Z,100851.69
2023-01-02T05:57:37.026Z,100852.66
2023-01-02T06:00:04.690Z,100843.37
2023-01-02T06:02:43.153Z,100844.75
2023-01-02T06:05:15.486Z,100863.94
2023-01-02T06:07:44.333Z,100848.28
2023-01-02T06:10:11.911Z,100855.97
2023-01-02T06:12:39.604Z,100848.97
2023-01-02T06:15:08.926Z,100846.13
2023-01-02T06:17:36.376Z,100842.69
2023-01-02T06:20:04.709Z,100850.34
2023-01-02T06:22:32.122Z,100846.84
2023-01-02T06:24:59.542Z,100843.56
2023-01-02T06:27:27.239Z,100854.22
2023-01-02T06:29:54.675Z,100850.91
2023-01-02T06:32:22.106Z,100853.00
2023-01-02T06:34:49.801Z,100850.47
2023-01-02T06:37:17.210Z,100851.81
2023-01-02T06:39:44.678Z,100864.75
2023-01-02T06:42:12.626Z,100856.88
2023-01-02T06:44:41.365Z,100848.03
2023-01-02T06:47:08.837Z,100857.78
2023-01-02T06:49:36.823Z,100855.09
2023-01-02T06:52:04.498Z,100862.59
2023-01-02T06:54:32.875Z,100855.31
2023-01-02T06:57:00.930Z,100856.91
2023-01-02T06:59:28.355Z,100862.91
2023-01-02T07:01:55.905Z,100859.72
2023-01-02T07:04:23.722Z,100868.00
2023-01-02T07:06:51.272Z,100871.03
2023-01-02T07:09:18.817Z,100869.12
2023-01-02T07:11:46.780Z,100876.53
2023-01-02T07:14:14.228Z,100872.19
2023-01-02T07:16:41.707Z,100872.50
2023-01-02T07:19:09.458Z,100875.31
2023-01-02T07:21:37.042Z,100870.53
2023-01-02T07:24:04.722Z,100883.38
2023-01-02T07:26:32.498Z,100877.31
2023-01-02T07:29:00.108Z,100871.97
2023-01-02T07:31:29.682Z,100881.66
2023-01-02T07:33:58.357Z,100880.00
2023-01-02T07:36:25.809Z,100879.88
2023-01-02T07:38:54.997Z,100883.28
2023-01-02T07:41:24.335Z,100879.50
2023-01-02T07:43:54.204Z,100880.03
2023-01-02T07:46:23.468Z,100882.00
2023-01-02T07:48:51.321Z,100874.41
2023-01-02T07:51:26.267Z,100879.56
2023-01-02T07:53:56.342Z,100872.31
2023-01-02T07:56:25.366Z,100881.13
2023-01-02T07:58:53.298Z,100883.06
2023-01-02T08:01:21.186Z,100880.69
2023-01-02T08:03:49.167Z,100871.97
2023-01-02T08:06:17.892Z,100876.09
2023-01-02T08:08:45.858Z,100883.38
2023-01-02T08:11:19.516Z,100883.31
2023-01-02T08:13:47.374Z,100867.75
2023-01-02T08:16:17.341Z,100869.38
2023-01-02T08:18:46.788Z,100874.00
2023-01-02T08:21:14.714Z,100878.75
2023-01-02T08:23:42.476Z,100868.47
2023-01-02T08:26:10.929Z,100874.53
2023-01-02T08:28:40.007Z,100871.03
2023-01-02T08:31:13.614Z,100868.94
2023-01-02T08:33:41.502Z,100881.22
2023-01-02T08:36:09.592Z,100875.50
2023-01-02T08:38:37.082Z,100884.28
2023-01-02T08:41:05.506Z,100880.81
2023-01-02T08:43:35.366Z,100874.66
2023-01-02T08:46:04.835Z,100889.31
2023-01-02T08:48:33.320Z,100892.53
2023-01-02T08:51:01.236Z,100895.00
2023-01-02T08:53:29.694Z,100894.59
2023-01-02T08:56:19.767Z,100884.41
2023-01-02T08:58:54.433Z,100893.31
2023-01-02T09:01:23.586Z,100887.81
2023-01-02T09:03:52.222Z,100891.31
2023-01-02T09:06:22.315Z,100883.34
2023-01-02T09:08:52.871Z,100881.25
2023-01-02T09:11:30.111Z,100888.34
2023-01-02T09:13:58.430Z,100885.13
2023-01-02T09:16:28.753Z,100883.22
2023-01-02T09:18:57.963Z,100886.81
2023-01-02T09:21:26.019Z,100880.16
2023-01-02T09:23:53.436Z,100880.53
2023-01-02T09:26:21.445Z,100885.94
2023-01-02T09:28:49.637Z,100880.84
2023-01-02T09:31:18.101Z,100880.03
2023-01-02T09:33:47.013Z,100871.09
2023-01-02T09:36:17.322Z,100871.63
2023-01-02T09:38:44.793Z,100871.41
2023-01-02T09:41:27.125Z,100873.84
2023-01-02T09:44:15.978Z,100862.06
2023-01-02T09:46:43.393Z,100857.97
2023-01-02T09:49:22.411Z,100857.94
2023-01-02T09:51:50.393Z,100856.59
2023-01-02T09:54:30.685Z,100850.78
2023-01-02T09:57:27.269Z,100851.69
2023-01-02T10:00:05.599Z,100836.69
2023-01-02T10:02:55.339Z,100840.31
2023-01-02T10:05:50.105Z,100827.13
2023-01-02T10:08:39.325Z,100834.56
2023-01-02T10:11:31.551Z,100834.75
2023-01-02T10:14:20.825Z,100838.00
2023-01-02T10:16:51.675Z,100839.38
2023-01-02T10:19:26.880Z,100832.44
2023-01-02T10:21:58.663Z,100820.72
2023-01-02T10:24:38.820Z,100823.13
2023-01-02T10:27:17.503Z,100818.41
2023-01-02T10:30:03.129Z,100818.25
2023-01-02T10:32:32.941Z,100805.50
2023-01-02T10:35:07.547Z,100807.56
2023-01-02T10:37:35.572Z,100811.94
2023-01-02T10:40:04.604Z,100811.25
2023-01-02T10:42:33.562Z,100812.53
2023-01-02T10:45:01.485Z,100808.72
2023-01-02T10:47:37.336Z,100794.13
2023-01-02T10:50:15.030Z,100788.38
2023-01-02T10:52:52.219Z,100781.22
2023-01-02T10:55:39.987Z,100771.16
2023-01-02T10:58:22.617Z,100774.28
2023-01-02T11:00:52.238Z,100763.47
2023-01-02T11:03:27.796Z,100773.13
2023-01-02T11:05:59.388Z,100778.12
2023-01-02T11:08:39.400Z,100770.91
2023-01-02T11:11:18.242Z,100773.44
2023-01-02T11:13:54.402Z,100769.31
2023-01-02T11:16:24.628Z,100768.22
2023-01-02T11:18:58.414Z,100753.62
2023-01-02T11:21:29.069Z,100752.97
2023-01-02T11:24:16.428Z,100757.22
2023-01-02T11:26:46.834Z,100757.28
2023-01-02T11:29:32.104Z,100744.47
2023-01-02T11:32:02.175Z,100752.22
2023-01-02T11:34:34.219Z,100738.37
2023-01-02T11:37:02.803Z,100738.81
2023-01-02T11:39:32.033Z,100735.31
2023-01-02T11:42:18.394Z,100726.72
2023-01-02T11:45:10.928Z,100732.31
2023-01-02T11:47:50.221Z,100718.63
2023-01-02T11:50:25.272Z,100721.41
2023-01-02T11:53:02.418Z,100716.28
2023-01-02T11:55:37.113Z,100708.09
2023-01-02T11:58:25.172Z,100701.81
2023-01-02T12:00:55.818Z,100693.00
2023-01-02T12:03:26.789Z,100695.81
2023-01-02T12:06:20.314Z,100695.53
2023-01-02T12:09:13.554Z,100686.94
2023-01-02T12:11:53.035Z,100684.41
2023-01-02T12:14:24.723Z,100692.78
2023-01-02T12:17:16.916Z,100680.56
2023-01-02T12:20:00.457Z,100684.56
2023-01-02T12:22:43.056Z,100683.28
2023-01-02T12:25:16.549Z,100680.84
2023-01-02T12:27:43.884Z,100675.75
2023-01-02T12:30:16.859Z,100682.97
2023-01-02T12:33:05.781Z,100680.78
2023-01-02T12:35:41.266Z,100678.22
2023-01-02T12:38:11.485Z,100675.59
2023-01-02T12:41:11.914Z,100672.41
2023-01-02T12:44:02.236Z,100667.25
2023-01-02T12:46:39.020Z,100677.75
2023-01-02T12:49:15.571Z,100667.66
2023-01-02T12:52:03.099Z,100671.41
2023-01-02T12:54:37.222Z,100663.50
2023-01-02T12:57:04.845Z,100657.13
2023-01-02T12:59:41.143Z,100659.22
2023-01-02T13:02:46.531Z,100649.88
2023-01-02T13:05:18.698Z,100648.13
2023-01-02T13:07:53.442Z,100650.16
2023-01-02T13:10:22.898Z,100653.59
2023-01-02T13:12:50.655Z,100642.53
2023-01-02T13:15:31.207Z,100640.31
2023-01-02T13:18:17.597Z,100651.31
2023-01-02T13:20:51.263Z,100645.09
2023-01-02T13:23:29.458Z,100640.63
2023-01-02T13:26:01.072Z,100642.31
2023-01-02T13:28:29.103Z,100649.59
2023-01-02T13:31:35.807Z,100645.28
2023-01-02T13:33:55.205Z,100652.75
2023-01-02T13:36:26.762Z,100649.94
2023-01-02T13:39:04.171Z,100641.28
2023-01-02T13:41:58.099Z,100647.53
2023-01-02T13:44:33.125Z,100640.19
2023-01-02T13:47:09.446Z,100641.81
2023-01-02T13:49:37.281Z,100632.63
2023-01-02T13:52:04.751Z,100638.41
2023-01-02T13:54:37.499Z,100634.91
2023-01-02T13:57:27.335Z,100639.28
2023-01-02T13:59:59.635Z,100637.97
2023-01-02T14:02:27.965Z,100637.13
2023-01-02T14:04:55.830Z,100630.53
2023-01-02T14:07:26.090Z,100645.69
2023-01-02T14:10:32.605Z,100644.50
2023-01-02T14:13:05.590Z,100646.66
2023-01-02T14:15:37.931Z,100647.69
2023-01-02T14:18:09.446Z,100639.97
2023-01-02T14:20:43.649Z,100648.62
2023-01-02T14:23:25.424Z,100648.13
2023-01-02T14:25:53.125Z,100647.09
2023-01-02T14:28:24.263Z,100646.72
2023-01-02T14:30:52.166Z,100647.34
2023-01-02T14:33:35.196Z,100644.06
2023-01-02T14:36:08.441Z,100649.44
2023-01-02T14:38:41.475Z,100639.31
2023-01-02T14:42:08.747Z,100646.09
2023-01-02T14:44:56.391Z,100645.47
2023-01-02T14:47:36.244Z,100641.72
2023-01-02T14:50:06.902Z,100647.88
2023-01-02T14:52:43.002Z,100648.34
2023-01-02T14:55:23.504Z,100644.91
2023-01-02T14:57:53.364Z,100641.81
2023-01-02T15:00:25.065Z,100638.62
2023-01-02T15:03:14.709Z,100645.94
2023-01-02T15:05:48.696Z,100638.56
2023-01-02T15:08:20.210Z,100641.50
2023-01-02T15:11:19.306Z,100635.28
2023-01-02T15:14:03.884Z,100639.63
2023-01-02T15:16:41.007Z,100647.47
2023-01-02T15:19:23.474Z,100642.62
2023-01-02T15:21:51.315Z,100645.00
2023-01-02T15:24:26.964Z,100641.44
2023-01-02T15:26:54.427Z,100646.78
2023-01-02T15:29:27.120Z,100648.84
2023-01-02T15:32:00.431Z,100648.44
2023-01-02T15:34:30.862Z,100642.62
2023-01-02T15:37:02.665Z,100651.88
2023-01-02T15:39:39.787Z,100654.22
2023-01-02T15:42:30.988Z,100650.41
2023-01-02T15:45:11.331Z,100656.94
2023-01-02T15:47:41.447Z,100656.31
2023-01-02T15:50:24.548Z,100665.47
2023-01-02T15:53:10.562Z,100662.66
2023-01-02T15:55:39.862Z,100668.41
2023-01-02T15:58:17.466Z,100660.16
2023-01-02T16:00:45.969Z,100669.03
2023-01-02T16:04:01.273Z,100670.47
2023-01-02T16:06:41.540Z,100667.66
2023-01-02T16:09:29.569Z,100671.44
2023-01-02T16:11:59.248Z,100671.09
2023-01-02T16:14:44.905Z,100664.16
2023-01-02T16:17:26.722Z,100671.53
2023-01-02T16:19:59.887Z,100666.84
2023-01-02T16:22:31.466Z,100671.72
2023-01-02T16:25:19.587Z,100673.09
2023-01-02T16:27:55.058Z,100682.81
2023-01-02T16:30:32.804Z,100677.81
2023-01-02T16:33:03.177Z,100681.34
2023-01-02T16:35:34.568Z,100672.50
2023-01-02T16:38:19.004Z,100676.81
2023-01-02T16:40:59.966Z,100676.44
2023-01-02T16:43:31.530Z,100672.38
2023-01-02T16:46:00.349Z,100678.00
2023-01-02T16:48:29.926Z,100676.81
2023-01-02T16:50:58.397Z,100680.00
2023-01-02T16:53:31.930Z,100672.59
2023-01-02T16:55:59.833Z,100677.44
2023-01-02T16:58:29.946Z,100676.44
2023-01-02T17:00:57.725Z,100674.16
2023-01-02T17:03:26.537Z,100685.69
2023-01-02T17:06:01.590Z,100683.25
2023-01-02T17:08:31.744Z,100688.22
2023-01-02T17:11:00.219Z,100694.91
2023-01-02T17:13:28.316Z,100686.16
2023-01-02T17:15:56.313Z,100692.78
2023-01-02T17:18:24.749Z,100689.22
2023-01-02T17:20:52.238Z,100689.78
2023-01-02T17:23:20.070Z,100683.75
2023-01-02T17:25:48.119Z,100694.91
2023-01-02T17:28:16.133Z,100693.44
2023-01-02T17:30:45.095Z,100690.91
2023-01-02T17:33:13.380Z,100690.63
2023-01-02T17:35:40.792Z,100695.75
2023-01-02T17:38:08.221Z,100691.25
2023-01-02T17:40:37.468Z,100694.25
2023-01-02T17:43:05.752Z,100707.34
2023-01-02T17:45:33.302Z,100703.53
2023-01-02T17:48:07.834Z,100691.94
2023-01-02T17:50:37.841Z,100699.69
2023-01-02T17:53:08.575Z,100684.56
2023-01-02T17:55:36.191Z,100693.38
2023-01-02T17:58:04.176Z,100692.38
2023-01-02T18:00:33.373Z,100691.91
2023-01-02T18:03:01.256Z,100699.62
2023-01-02T18:05:28.926Z,100692.91
2023-01-02T18:07:56.512Z,100683.28
2023-01-02T18:10:29.146Z,100693.22
2023-01-02T18:13:00.722Z,100693.91
2023-01-02T18:15:28.953Z,100691.19
2023-01-02T18:17:59.796Z,100687.22
2023-01-02T18:20:28.644Z,100690.03
2023-01-02T18:22:58.140Z,100682.50
2023-01-02T18:25:30.094Z,100684.84
2023-01-02T18:28:24.655Z,100683.47
2023-01-02T18:30:58.010Z,100690.47
2023-01-02T18:33:27.401Z,100684.78
2023-01-02T18:36:02.781Z,100692.81
2023-01-02T18:38:34.909Z,100692.78
2023-01-02T18:41:26.264Z,100681.56
2023-01-02T18:44:04.786Z,100678.53
2023-01-02T18:47:04.334Z,100683.78
2023-01-02T18:49:31.913Z,100685.25
2023-01-02T18:52:11.760Z,100684.37
2023-01-02T18:54:55.081Z,100682.13
2023-01-02T18:57:23.346Z,100684.69
2023-01-02T18:59:51.826Z,100680.41
2023-01-02T19:02:38.426Z,100679.91
2023-01-02T19:05:37.194Z,100682.22
2023-01-02T19:08:08.537Z,100682.94
2023-01-02T19:10:41.681Z,100690.63
2023-01-02T19:13:26.569Z,100684.44
2023-01-02T19:16:05.787Z,100689.19
2023-01-02T19:18:49.145Z,100689.06
2023-01-02T19:21:19.861Z,100692.78
2023-01-02T19:24:16.587Z,100691.13
2023-01-02T19:26:46.799Z,100691.06
2023-01-02T19:29:18.857Z,100689.53
2023-01-02T19:32:05.786Z,100691.44
2023-01-02T19:34:45.638Z,100691.06
2023-01-02T19:37:14.871Z,100691.34
2023-01-02T19:39:51.828Z,100691.81
2023-01-02T19:42:20.819Z,100697.53
2023-01-02T19:44:56.681Z,100702.97
2023-01-02T19:47:27.295Z,100697.66
2023-01-02T19:49:56.144Z,100704.16
2023-01-02T19:52:25.523Z,100703.69
2023-01-02T19:54:54.117Z,100699.72
2023-01-02T19:57:24.764Z,100704.72
2023-01-02T19:59:56.347Z,100706.22
2023-01-02T20:02:27.074Z,100709.13
2023-01-02T20:04:57.433Z,100715.84
2023-01-02T20:07:26.794Z,100719.59
2023-01-02T20:09:56.244Z,100711.53
2023-01-02T20:12:30.768Z,100722.53
2023-01-02T20:15:01.307Z,100709.19
2023-01-02T20:17:31.969Z,100722.56
2023-01-02T20:20:01.904Z,100713.69
2023-01-02T20:22:30.551Z,100714.91
2023-01-02T20:24:59.276Z,100719.28
2023-01-02T20:27:27.286Z,100720.16
2023-01-02T20:29:58.891Z,100710.25
2023-01-02T20:32:27.208Z,100713.50
2023-01-02T20:34:55.906Z,100717.25
2023-01-02T20:37:26.154Z,100717.88
2023-01-02T20:39:56.638Z,100712.72
2023-01-02T20:42:26.703Z,100716.19
2023-01-02T20:44:57.147Z,100721.84
2023-01-02T20:47:25.413Z,100717.34
2023-01-02T20:49:54.497Z,100718.69
2023-01-02T20:52:23.158Z,100713.09
2023-01-02T20:54:51.397Z,100722.13
2023-01-02T20:57:21.283Z,100720.78
2023-01-02T20:59:49.847Z,100728.00
2023-01-02T21:02:18.469Z,100716.16
2023-01-02T21:04:47.066Z,100718.50
2023-01-02T21:07:16.999Z,100720.38
2023-01-02T21:09:44.721Z,100717.00
2023-01-02T21:12:32.973Z,100720.47
2023-01-02T21:15:01.911Z,100726.31
2023-01-02T21:17:31.346Z,100724.16
2023-01-02T21:19:59.990Z,100729.97
2023-01-02T21:22:28.024Z,100727.00
2023-01-02T21:24:55.826Z,100728.50
2023-01-02T21:27:23.281Z,100730.16
2023-01-02T21:29:51.609Z,100735.50
2023-01-02T21:32:19.379Z,100741.09
2023-01-02T21:34:47.235Z,100748.78
2023-01-02T21:37:15.019Z,100752.56
2023-01-02T21:39:42.460Z,100755.47
2023-01-02T21:42:18.845Z,100756.00
2023-01-02T21:44:47.590Z,100758.16
2023-01-02T21:47:16.055Z,100757.16
2023-01-02T21:49:44.138Z,100756.25
2023-01-02T21:52:12.027Z,100751.87
2023-01-02T21:54:39.470Z,100757.72
2023-01-02T21:57:06.950Z,100754.47
2023-01-02T21:59:34.761Z,100759.66
2023-01-02T22:02:04.666Z,100764.69
2023-01-02T22:04:33.572Z,100764.56
2023-01-02T22:09:51.205Z,100773.59
2023-01-02T22:12:18.651Z,100778.91
2023-01-02T22:14:46.101Z,100778.47
2023-01-02T22:17:14.049Z,100773.34
2023-01-02T22:19:41.636Z,100767.31
2023-01-02T22:22:09.198Z,100775.41
2023-01-02T22:24:43.977Z,100770.00
2023-01-02T22:27:14.460Z,100772.56
2023-01-02T22:32:34.381Z,100765.94
2023-01-02T22:35:04.136Z,100763.44
2023-01-02T22:37:31.615Z,100768.72
2023-01-02T22:40:01.899Z,100771.84
2023-01-02T22:43:00.403Z,100768.84
2023-01-02T22:45:31.994Z,100764.09
2023-01-02T22:48:03.730Z,100757.06
2023-01-02T22:50:39.727Z,100752.94
2023-01-02T22:53:34.885Z,100765.03
2023-01-02T22:56:10.577Z,100777.88
2023-01-02T22:58:38.312Z,100763.13
2023-01-02T23:01:19.945Z,100774.50
2023-01-02T23:03:49.323Z,100781.31
2023-01-02T23:06:21.974Z,100774.03
2023-01-02T23:08:51.505Z,100764.41
2023-01-02T23:11:20.460Z,100762.84
2023-01-02T23:13:53.112Z,100767.62
2023-01-02T23:16:42.801Z,100767.75
2023-01-02T23:19:16.256Z,100766.25
2023-01-02T23:21:49.191Z,100769.16
2023-01-02T23:24:19.658Z,100770.88
2023-01-02T23:26:50.447Z,100779.03
2023-01-02T23:29:18.891Z,100775.28
2023-01-02T23:31:48.100Z,100779.34
2023-01-02T23:34:18.119Z,100780.97
2023-01-02T23:36:45.730Z,100783.78
2023-01-02T23:39:15.204Z,100784.50
2023-01-02T23:41:43.568Z,100786.84
2023-01-02T23:44:11.957Z,100779.31
2023-01-02T23:46:40.232Z,100785.56
2023-01-02T23:49:08.846Z,100765.84
2023-01-02T23:51:37.563Z,100753.13
2023-01-02T23:54:05.957Z,100760.00
2023-01-02T23:56:36.536Z,100769.22
2023-01-02T23:59:06.705Z,100778.22
